sensor_id;sensor_type;location;lat;lon;timestamp;P1;durP1;ratioP1;P2;durP2;ratioP2
46290;SDS011;32023;44.444;26.006;2023-04-24T00:01:33;16.48;;;5.60;;
46290;SDS011;32023;44.444;26.006;2023-04-24T00:04:04;14.10;;;5.45;;
46290;SDS011;32023;44.444;26.006;2023-04-24T00:06:32;16.75;;;6.13;;
46290;SDS011;32023;44.444;26.006;2023-04-24T00:09:02;8.02;;;5.25;;
46290;SDS011;32023;44.444;26.006;2023-04-24T00:11:30;9.52;;;5.07;;
46290;SDS011;32023;44.444;26.006;2023-04-24T00:13:57;14.73;;;6.20;;
46290;SDS011;32023;44.444;26.006;2023-04-24T00:16:24;8.15;;;5.35;;
46290;SDS011;32023;44.444;26.006;2023-04-24T00:18:53;10.82;;;5.85;;
46290;SDS011;32023;44.444;26.006;2023-04-24T00:21:19;11.27;;;6.28;;
46290;SDS011;32023;44.444;26.006;2023-04-24T00:23:46;14.25;;;6.30;;
46290;SDS011;32023;44.444;26.006;2023-04-24T00:26:13;12.13;;;5.78;;
46290;SDS011;32023;44.444;26.006;2023-04-24T00:28:39;11.07;;;5.90;;
46290;SDS011;32023;44.444;26.006;2023-04-24T00:31:06;14.73;;;5.10;;
46290;SDS011;32023;44.444;26.006;2023-04-24T00:33:32;10.30;;;5.88;;
46290;SDS011;32023;44.444;26.006;2023-04-24T00:38:28;16.58;;;8.15;;
46290;SDS011;32023;44.444;26.006;2023-04-24T00:40:55;13.95;;;6.05;;
46290;SDS011;32023;44.444;26.006;2023-04-24T00:43:27;10.15;;;6.25;;
46290;SDS011;32023;44.444;26.006;2023-04-24T00:45:54;17.80;;;8.70;;
46290;SDS011;32023;44.444;26.006;2023-04-24T00:48:26;16.77;;;7.20;;
46290;SDS011;32023;44.444;26.006;2023-04-24T00:50:54;15.50;;;7.97;;
46290;SDS011;32023;44.444;26.006;2023-04-24T00:53:20;18.67;;;7.65;;
46290;SDS011;32023;44.444;26.006;2023-04-24T00:55:47;16.33;;;8.98;;
46290;SDS011;32023;44.444;26.006;2023-04-24T00:58:14;11.75;;;7.53;;
46290;SDS011;32023;44.444;26.006;2023-04-24T01:00:40;14.98;;;8.90;;
46290;SDS011;32023;44.444;26.006;2023-04-24T01:03:07;16.98;;;10.32;;
46290;SDS011;32023;44.444;26.006;2023-04-24T01:05:38;14.85;;;7.82;;
46290;SDS011;32023;44.444;26.006;2023-04-24T01:08:05;9.30;;;6.32;;
46290;SDS011;32023;44.444;26.006;2023-04-24T01:10:37;16.02;;;7.20;;
46290;SDS011;32023;44.444;26.006;2023-04-24T01:13:07;16.60;;;8.57;;
46290;SDS011;32023;44.444;26.006;2023-04-24T01:15:36;15.30;;;7.63;;
46290;SDS011;32023;44.444;26.006;2023-04-24T01:18:05;10.05;;;5.38;;
46290;SDS011;32023;44.444;26.006;2023-04-24T01:20:35;7.85;;;4.75;;
46290;SDS011;32023;44.444;26.006;2023-04-24T01:23:05;10.85;;;5.15;;
46290;SDS011;32023;44.444;26.006;2023-04-24T01:25:32;12.20;;;6.15;;
46290;SDS011;32023;44.444;26.006;2023-04-24T01:27:59;11.73;;;6.00;;
46290;SDS011;32023;44.444;26.006;2023-04-24T01:30:26;7.82;;;5.43;;
46290;SDS011;32023;44.444;26.006;2023-04-24T01:32:53;8.10;;;5.32;;
46290;SDS011;32023;44.444;26.006;2023-04-24T01:35:20;9.30;;;4.55;;
46290;SDS011;32023;44.444;26.006;2023-04-24T01:37:49;14.18;;;7.47;;
46290;SDS011;32023;44.444;26.006;2023-04-24T01:40:15;12.18;;;6.35;;
46290;SDS011;32023;44.444;26.006;2023-04-24T01:42:42;17.67;;;6.95;;
46290;SDS011;32023;44.444;26.006;2023-04-24T01:45:12;12.00;;;6.03;;
46290;SDS011;32023;44.444;26.006;2023-04-24T01:47:41;10.57;;;5.68;;
46290;SDS011;32023;44.444;26.006;2023-04-24T01:50:08;15.55;;;6.97;;
46290;SDS011;32023;44.444;26.006;2023-04-24T01:52:35;11.57;;;7.18;;
46290;SDS011;32023;44.444;26.006;2023-04-24T01:55:02;12.73;;;5.85;;
46290;SDS011;32023;44.444;26.006;2023-04-24T01:57:30;10.85;;;5.68;;
46290;SDS011;32023;44.444;26.006;2023-04-24T01:59:59;12.25;;;6.72;;
46290;SDS011;32023;44.444;26.006;2023-04-24T02:02:26;12.77;;;6.93;;
46290;SDS011;32023;44.444;26.006;2023-04-24T02:04:55;13.30;;;6.68;;
46290;SDS011;32023;44.444;26.006;2023-04-24T02:07:22;9.82;;;5.93;;
46290;SDS011;32023;44.444;26.006;2023-04-24T02:09:49;20.17;;;7.35;;
46290;SDS011;32023;44.444;26.006;2023-04-24T02:12:16;17.27;;;6.13;;
46290;SDS011;32023;44.444;26.006;2023-04-24T02:14:45;12.88;;;7.13;;
46290;SDS011;32023;44.444;26.006;2023-04-24T02:17:11;19.73;;;9.15;;
46290;SDS011;32023;44.444;26.006;2023-04-24T02:19:42;15.45;;;10.38;;
46290;SDS011;32023;44.444;26.006;2023-04-24T02:22:08;17.10;;;10.93;;
46290;SDS011;32023;44.444;26.006;2023-04-24T02:24:35;14.48;;;10.05;;
46290;SDS011;32023;44.444;26.006;2023-04-24T02:27:02;14.65;;;10.63;;
46290;SDS011;32023;44.444;26.006;2023-04-24T02:29:35;21.38;;;11.68;;
46290;SDS011;32023;44.444;26.006;2023-04-24T02:32:02;18.02;;;11.98;;
46290;SDS011;32023;44.444;26.006;2023-04-24T02:34:28;17.70;;;11.73;;
46290;SDS011;32023;44.444;26.006;2023-04-24T02:36:55;19.33;;;11.50;;
46290;SDS011;32023;44.444;26.006;2023-04-24T02:39:21;17.13;;;11.32;;
46290;SDS011;32023;44.444;26.006;2023-04-24T02:41:48;19.90;;;12.07;;
46290;SDS011;32023;44.444;26.006;2023-04-24T02:44:14;23.13;;;12.02;;
46290;SDS011;32023;44.444;26.006;2023-04-24T02:46:42;23.38;;;12.50;;
46290;SDS011;32023;44.444;26.006;2023-04-24T02:49:08;19.42;;;11.48;;
46290;SDS011;32023;44.444;26.006;2023-04-24T02:51:38;22.02;;;12.15;;
46290;SDS011;32023;44.444;26.006;2023-04-24T02:54:11;19.83;;;12.32;;
46290;SDS011;32023;44.444;26.006;2023-04-24T02:56:41;20.67;;;11.10;;
46290;SDS011;32023;44.444;26.006;2023-04-24T02:59:10;16.23;;;11.30;;
46290;SDS011;32023;44.444;26.006;2023-04-24T03:01:39;16.30;;;11.60;;
46290;SDS011;32023;44.444;26.006;2023-04-24T03:04:05;21.60;;;12.18;;
46290;SDS011;32023;44.444;26.006;2023-04-24T03:06:33;23.50;;;11.55;;
46290;SDS011;32023;44.444;26.006;2023-04-24T03:09:00;21.42;;;13.13;;
46290;SDS011;32023;44.444;26.006;2023-04-24T03:11:27;21.35;;;11.98;;
46290;SDS011;32023;44.444;26.006;2023-04-24T03:13:53;22.08;;;12.73;;
46290;SDS011;32023;44.444;26.006;2023-04-24T03:16:22;17.25;;;11.30;;
46290;SDS011;32023;44.444;26.006;2023-04-24T03:18:48;17.50;;;11.30;;
46290;SDS011;32023;44.444;26.006;2023-04-24T03:21:15;22.45;;;12.10;;
46290;SDS011;32023;44.444;26.006;2023-04-24T03:23:41;17.50;;;11.57;;
46290;SDS011;32023;44.444;26.006;2023-04-24T03:26:08;24.08;;;10.82;;
46290;SDS011;32023;44.444;26.006;2023-04-24T03:28:34;24.05;;;11.65;;
46290;SDS011;32023;44.444;26.006;2023-04-24T03:31:03;24.58;;;12.48;;
46290;SDS011;32023;44.444;26.006;2023-04-24T03:33:29;23.23;;;11.90;;
46290;SDS011;32023;44.444;26.006;2023-04-24T03:35:58;21.10;;;11.80;;
46290;SDS011;32023;44.444;26.006;2023-04-24T03:38:24;18.83;;;11.48;;
46290;SDS011;32023;44.444;26.006;2023-04-24T03:40:55;19.17;;;11.60;;
46290;SDS011;32023;44.444;26.006;2023-04-24T03:43:21;23.10;;;12.45;;
46290;SDS011;32023;44.444;26.006;2023-04-24T03:45:50;19.20;;;11.10;;
46290;SDS011;32023;44.444;26.006;2023-04-24T03:48:20;17.17;;;11.23;;
46290;SDS011;32023;44.444;26.006;2023-04-24T03:50:46;19.88;;;11.38;;
46290;SDS011;32023;44.444;26.006;2023-04-24T03:53:15;22.23;;;12.18;;
46290;SDS011;32023;44.444;26.006;2023-04-24T03:55:43;15.05;;;10.45;;
46290;SDS011;32023;44.444;26.006;2023-04-24T03:58:10;23.65;;;11.57;;
46290;SDS011;32023;44.444;26.006;2023-04-24T04:00:40;22.83;;;10.80;;
46290;SDS011;32023;44.444;26.006;2023-04-24T04:03:06;15.60;;;10.38;;
46290;SDS011;32023;44.444;26.006;2023-04-24T04:05:40;21.30;;;11.40;;
46290;SDS011;32023;44.444;26.006;2023-04-24T04:08:08;17.38;;;11.43;;
46290;SDS011;32023;44.444;26.006;2023-04-24T04:13:07;15.80;;;9.40;;
46290;SDS011;32023;44.444;26.006;2023-04-24T04:15:38;16.70;;;9.60;;
46290;SDS011;32023;44.444;26.006;2023-04-24T04:18:05;15.13;;;10.50;;
46290;SDS011;32023;44.444;26.006;2023-04-24T04:20:31;20.98;;;11.50;;
46290;SDS011;32023;44.444;26.006;2023-04-24T04:23:01;16.33;;;10.18;;
46290;SDS011;32023;44.444;26.006;2023-04-24T04:25:40;30.70;;;12.00;;
46290;SDS011;32023;44.444;26.006;2023-04-24T04:31:50;15.38;;;10.32;;
46290;SDS011;32023;44.444;26.006;2023-04-24T04:34:50;21.60;;;10.23;;
46290;SDS011;32023;44.444;26.006;2023-04-24T04:37:55;19.80;;;11.10;;
46290;SDS011;32023;44.444;26.006;2023-04-24T04:41:12;24.17;;;10.90;;
46290;SDS011;32023;44.444;26.006;2023-04-24T04:49:59;20.42;;;10.85;;
46290;SDS011;32023;44.444;26.006;2023-04-24T04:52:26;22.02;;;10.00;;
46290;SDS011;32023;44.444;26.006;2023-04-24T04:54:52;23.55;;;11.10;;
46290;SDS011;32023;44.444;26.006;2023-04-24T04:57:19;21.70;;;10.50;;
46290;SDS011;32023;44.444;26.006;2023-04-24T04:59:46;19.75;;;10.02;;
46290;SDS011;32023;44.444;26.006;2023-04-24T05:02:19;19.83;;;10.25;;
46290;SDS011;32023;44.444;26.006;2023-04-24T05:04:46;25.15;;;10.82;;
46290;SDS011;32023;44.444;26.006;2023-04-24T05:07:12;19.63;;;10.50;;
46290;SDS011;32023;44.444;26.006;2023-04-24T05:09:38;21.70;;;10.35;;
46290;SDS011;32023;44.444;26.006;2023-04-24T05:12:05;23.95;;;10.68;;
46290;SDS011;32023;44.444;26.006;2023-04-24T05:14:34;27.05;;;10.10;;
46290;SDS011;32023;44.444;26.006;2023-04-24T05:17:01;22.02;;;11.43;;
46290;SDS011;32023;44.444;26.006;2023-04-24T05:19:28;19.95;;;10.55;;
46290;SDS011;32023;44.444;26.006;2023-04-24T05:21:57;19.30;;;10.57;;
46290;SDS011;32023;44.444;26.006;2023-04-24T05:24:24;15.93;;;10.65;;
46290;SDS011;32023;44.444;26.006;2023-04-24T05:26:50;17.48;;;10.95;;
46290;SDS011;32023;44.444;26.006;2023-04-24T05:29:20;16.75;;;10.15;;
46290;SDS011;32023;44.444;26.006;2023-04-24T05:34:18;20.75;;;10.75;;
46290;SDS011;32023;44.444;26.006;2023-04-24T05:36:47;18.13;;;10.15;;
46290;SDS011;32023;44.444;26.006;2023-04-24T05:39:20;16.23;;;10.95;;
46290;SDS011;32023;44.444;26.006;2023-04-24T05:41:52;20.67;;;10.95;;
46290;SDS011;32023;44.444;26.006;2023-04-24T05:44:26;22.20;;;10.45;;
46290;SDS011;32023;44.444;26.006;2023-04-24T05:46:53;28.48;;;11.32;;
46290;SDS011;32023;44.444;26.006;2023-04-24T05:49:22;20.83;;;10.77;;
46290;SDS011;32023;44.444;26.006;2023-04-24T05:51:49;13.45;;;9.90;;
46290;SDS011;32023;44.444;26.006;2023-04-24T05:54:15;24.42;;;9.45;;
46290;SDS011;32023;44.444;26.006;2023-04-24T05:56:41;19.90;;;9.85;;
46290;SDS011;32023;44.444;26.006;2023-04-24T05:59:08;26.67;;;10.30;;
46290;SDS011;32023;44.444;26.006;2023-04-24T06:01:38;32.65;;;11.65;;
46290;SDS011;32023;44.444;26.006;2023-04-24T06:04:06;20.63;;;10.63;;
46290;SDS011;32023;44.444;26.006;2023-04-24T06:06:39;23.42;;;10.30;;
46290;SDS011;32023;44.444;26.006;2023-04-24T06:09:14;24.88;;;10.38;;
46290;SDS011;32023;44.444;26.006;2023-04-24T06:11:51;16.48;;;9.80;;
46290;SDS011;32023;44.444;26.006;2023-04-24T06:14:18;19.50;;;10.77;;
46290;SDS011;32023;44.444;26.006;2023-04-24T06:16:50;23.77;;;10.63;;
46290;SDS011;32023;44.444;26.006;2023-04-24T06:19:16;18.42;;;9.93;;
46290;SDS011;32023;44.444;26.006;2023-04-24T06:21:46;29.00;;;10.70;;
46290;SDS011;32023;44.444;26.006;2023-04-24T06:24:14;25.13;;;10.93;;
46290;SDS011;32023;44.444;26.006;2023-04-24T06:26:43;15.93;;;10.70;;
46290;SDS011;32023;44.444;26.006;2023-04-24T06:29:12;16.85;;;8.95;;
46290;SDS011;32023;44.444;26.006;2023-04-24T06:31:45;21.92;;;6.90;;
46290;SDS011;32023;44.444;26.006;2023-04-24T06:34:24;12.43;;;8.20;;
46290;SDS011;32023;44.444;26.006;2023-04-24T06:36:55;13.05;;;7.70;;
46290;SDS011;32023;44.444;26.006;2023-04-24T06:39:22;15.85;;;7.25;;
46290;SDS011;32023;44.444;26.006;2023-04-24T06:41:48;14.48;;;7.13;;
46290;SDS011;32023;44.444;26.006;2023-04-24T06:44:18;20.35;;;8.10;;
46290;SDS011;32023;44.444;26.006;2023-04-24T06:46:47;12.18;;;6.72;;
46290;SDS011;32023;44.444;26.006;2023-04-24T06:49:17;15.30;;;6.80;;
46290;SDS011;32023;44.444;26.006;2023-04-24T06:51:43;17.77;;;7.07;;
46290;SDS011;32023;44.444;26.006;2023-04-24T06:54:10;12.90;;;7.03;;
46290;SDS011;32023;44.444;26.006;2023-04-24T06:56:39;14.10;;;7.32;;
46290;SDS011;32023;44.444;26.006;2023-04-24T06:59:14;18.15;;;7.38;;
46290;SDS011;32023;44.444;26.006;2023-04-24T07:01:47;12.32;;;7.72;;
46290;SDS011;32023;44.444;26.006;2023-04-24T07:04:20;16.70;;;7.72;;
46290;SDS011;32023;44.444;26.006;2023-04-24T07:06:47;19.48;;;7.40;;
46290;SDS011;32023;44.444;26.006;2023-04-24T07:09:19;12.13;;;7.03;;
46290;SDS011;32023;44.444;26.006;2023-04-24T07:11:49;15.88;;;8.02;;
46290;SDS011;32023;44.444;26.006;2023-04-24T07:14:16;31.23;;;7.75;;
46290;SDS011;32023;44.444;26.006;2023-04-24T07:16:59;23.42;;;8.38;;
46290;SDS011;32023;44.444;26.006;2023-04-24T07:19:42;20.73;;;7.60;;
46290;SDS011;32023;44.444;26.006;2023-04-24T07:24:53;16.60;;;8.27;;
46290;SDS011;32023;44.444;26.006;2023-04-24T07:27:24;18.95;;;6.93;;
46290;SDS011;32023;44.444;26.006;2023-04-24T07:33:04;18.92;;;7.03;;
46290;SDS011;32023;44.444;26.006;2023-04-24T07:35:45;14.80;;;7.40;;
46290;SDS011;32023;44.444;26.006;2023-04-24T07:38:25;17.77;;;7.63;;
46290;SDS011;32023;44.444;26.006;2023-04-24T07:40:59;13.35;;;6.35;;
46290;SDS011;32023;44.444;26.006;2023-04-24T07:43:34;11.43;;;6.25;;
46290;SDS011;32023;44.444;26.006;2023-04-24T07:46:08;23.02;;;6.22;;
46290;SDS011;32023;44.444;26.006;2023-04-24T07:48:58;17.10;;;5.70;;
46290;SDS011;32023;44.444;26.006;2023-04-24T07:51:29;20.23;;;6.32;;
46290;SDS011;32023;44.444;26.006;2023-04-24T07:54:06;15.40;;;6.32;;
46290;SDS011;32023;44.444;26.006;2023-04-24T07:56:45;20.55;;;6.20;;
46290;SDS011;32023;44.444;26.006;2023-04-24T07:59:24;15.85;;;8.02;;
46290;SDS011;32023;44.444;26.006;2023-04-24T08:01:56;22.30;;;7.75;;
46290;SDS011;32023;44.444;26.006;2023-04-24T08:04:35;15.30;;;6.95;;
46290;SDS011;32023;44.444;26.006;2023-04-24T08:10:29;13.35;;;5.90;;
46290;SDS011;32023;44.444;26.006;2023-04-24T08:13:36;14.68;;;5.03;;
46290;SDS011;32023;44.444;26.006;2023-04-24T08:16:13;12.20;;;5.47;;
46290;SDS011;32023;44.444;26.006;2023-04-24T08:18:45;10.65;;;5.35;;
46290;SDS011;32023;44.444;26.006;2023-04-24T08:21:19;14.32;;;5.10;;
46290;SDS011;32023;44.444;26.006;2023-04-24T08:23:48;18.55;;;5.15;;
46290;SDS011;32023;44.444;26.006;2023-04-24T08:26:24;13.68;;;5.30;;
46290;SDS011;32023;44.444;26.006;2023-04-24T08:28:53;15.55;;;5.05;;
46290;SDS011;32023;44.444;26.006;2023-04-24T08:31:33;19.45;;;5.28;;
46290;SDS011;32023;44.444;26.006;2023-04-24T08:34:03;9.77;;;4.97;;
46290;SDS011;32023;44.444;26.006;2023-04-24T08:36:33;18.92;;;5.28;;
46290;SDS011;32023;44.444;26.006;2023-04-24T08:39:07;23.85;;;5.40;;
46290;SDS011;32023;44.444;26.006;2023-04-24T08:41:36;7.25;;;3.63;;
46290;SDS011;32023;44.444;26.006;2023-04-24T08:44:24;11.10;;;4.05;;
46290;SDS011;32023;44.444;26.006;2023-04-24T08:47:04;9.23;;;3.92;;
46290;SDS011;32023;44.444;26.006;2023-04-24T08:49:38;18.75;;;4.35;;
46290;SDS011;32023;44.444;26.006;2023-04-24T08:52:05;6.43;;;3.30;;
46290;SDS011;32023;44.444;26.006;2023-04-24T08:54:41;13.23;;;3.38;;
46290;SDS011;32023;44.444;26.006;2023-04-24T08:57:10;9.43;;;3.50;;
46290;SDS011;32023;44.444;26.006;2023-04-24T08:59:39;10.50;;;2.83;;
46290;SDS011;32023;44.444;26.006;2023-04-24T09:02:18;8.65;;;3.40;;
46290;SDS011;32023;44.444;26.006;2023-04-24T09:04:56;6.22;;;3.90;;
46290;SDS011;32023;44.444;26.006;2023-04-24T09:07:24;7.93;;;3.58;;
46290;SDS011;32023;44.444;26.006;2023-04-24T09:09:57;8.88;;;3.03;;
46290;SDS011;32023;44.444;26.006;2023-04-24T09:12:24;10.23;;;3.35;;
46290;SDS011;32023;44.444;26.006;2023-04-24T09:14:51;9.05;;;3.90;;
46290;SDS011;32023;44.444;26.006;2023-04-24T09:17:28;9.05;;;3.00;;
46290;SDS011;32023;44.444;26.006;2023-04-24T09:19:57;12.20;;;3.38;;
46290;SDS011;32023;44.444;26.006;2023-04-24T09:22:23;23.20;;;3.88;;
46290;SDS011;32023;44.444;26.006;2023-04-24T09:25:07;7.25;;;3.45;;
46290;SDS011;32023;44.444;26.006;2023-04-24T09:27:41;8.40;;;3.08;;
46290;SDS011;32023;44.444;26.006;2023-04-24T09:30:11;16.35;;;3.42;;
46290;SDS011;32023;44.444;26.006;2023-04-24T09:32:37;12.90;;;3.75;;
46290;SDS011;32023;44.444;26.006;2023-04-24T09:35:05;9.88;;;3.33;;
46290;SDS011;32023;44.444;26.006;2023-04-24T09:37:46;8.68;;;2.92;;
46290;SDS011;32023;44.444;26.006;2023-04-24T09:40:22;4.07;;;2.50;;
46290;SDS011;32023;44.444;26.006;2023-04-24T09:42:53;9.70;;;2.78;;
46290;SDS011;32023;44.444;26.006;2023-04-24T09:45:22;8.00;;;3.00;;
46290;SDS011;32023;44.444;26.006;2023-04-24T09:48:04;5.50;;;2.85;;
46290;SDS011;32023;44.444;26.006;2023-04-24T09:50:35;8.38;;;3.17;;
46290;SDS011;32023;44.444;26.006;2023-04-24T09:53:05;8.52;;;2.80;;
46290;SDS011;32023;44.444;26.006;2023-04-24T09:55:39;12.07;;;3.17;;
46290;SDS011;32023;44.444;26.006;2023-04-24T09:58:10;9.80;;;2.80;;
46290;SDS011;32023;44.444;26.006;2023-04-24T10:00:36;10.82;;;3.50;;
46290;SDS011;32023;44.444;26.006;2023-04-24T10:03:03;9.32;;;3.50;;
46290;SDS011;32023;44.444;26.006;2023-04-24T10:05:36;6.40;;;2.30;;
46290;SDS011;32023;44.444;26.006;2023-04-24T10:08:10;5.55;;;2.90;;
46290;SDS011;32023;44.444;26.006;2023-04-24T10:10:46;8.80;;;2.90;;
46290;SDS011;32023;44.444;26.006;2023-04-24T10:13:21;4.10;;;2.53;;
46290;SDS011;32023;44.444;26.006;2023-04-24T10:15:48;9.73;;;2.92;;
46290;SDS011;32023;44.444;26.006;2023-04-24T10:18:15;14.32;;;4.50;;
46290;SDS011;32023;44.444;26.006;2023-04-24T10:20:41;5.88;;;3.03;;
46290;SDS011;32023;44.444;26.006;2023-04-24T10:23:08;8.93;;;2.95;;
46290;SDS011;32023;44.444;26.006;2023-04-24T10:25:36;5.95;;;2.92;;
46290;SDS011;32023;44.444;26.006;2023-04-24T10:28:03;6.88;;;2.60;;
46290;SDS011;32023;44.444;26.006;2023-04-24T10:30:31;8.43;;;3.33;;
46290;SDS011;32023;44.444;26.006;2023-04-24T10:33:02;8.80;;;2.83;;
46290;SDS011;32023;44.444;26.006;2023-04-24T10:35:31;14.38;;;4.07;;
46290;SDS011;32023;44.444;26.006;2023-04-24T10:38:07;10.45;;;2.63;;
46290;SDS011;32023;44.444;26.006;2023-04-24T10:40:39;6.65;;;3.08;;
46290;SDS011;32023;44.444;26.006;2023-04-24T10:43:07;4.93;;;2.80;;
46290;SDS011;32023;44.444;26.006;2023-04-24T10:45:37;10.38;;;2.75;;
46290;SDS011;32023;44.444;26.006;2023-04-24T10:48:04;5.68;;;2.78;;
46290;SDS011;32023;44.444;26.006;2023-04-24T10:53:13;4.43;;;2.90;;
46290;SDS011;32023;44.444;26.006;2023-04-24T10:55:47;8.15;;;2.60;;
46290;SDS011;32023;44.444;26.006;2023-04-24T10:58:18;9.65;;;3.97;;
46290;SDS011;32023;44.444;26.006;2023-04-24T11:00:55;3.30;;;2.38;;
46290;SDS011;32023;44.444;26.006;2023-04-24T11:08:57;5.20;;;2.20;;
46290;SDS011;32023;44.444;26.006;2023-04-24T11:11:29;6.63;;;2.80;;
46290;SDS011;32023;44.444;26.006;2023-04-24T11:16:32;8.45;;;2.80;;
46290;SDS011;32023;44.444;26.006;2023-04-24T11:19:17;7.35;;;2.70;;
46290;SDS011;32023;44.444;26.006;2023-04-24T11:27:07;5.25;;;2.83;;
46290;SDS011;32023;44.444;26.006;2023-04-24T11:29:48;6.30;;;2.38;;
46290;SDS011;32023;44.444;26.006;2023-04-24T11:32:30;4.43;;;2.53;;
46290;SDS011;32023;44.444;26.006;2023-04-24T11:35:05;7.38;;;2.83;;
46290;SDS011;32023;44.444;26.006;2023-04-24T11:37:35;11.43;;;2.78;;
46290;SDS011;32023;44.444;26.006;2023-04-24T11:40:06;8.55;;;2.53;;
46290;SDS011;32023;44.444;26.006;2023-04-24T11:42:44;12.13;;;2.88;;
46290;SDS011;32023;44.444;26.006;2023-04-24T11:45:14;5.00;;;2.20;;
46290;SDS011;32023;44.444;26.006;2023-04-24T11:47:55;8.60;;;2.47;;
46290;SDS011;32023;44.444;26.006;2023-04-24T11:50:23;8.50;;;2.72;;
46290;SDS011;32023;44.444;26.006;2023-04-24T11:52:53;8.27;;;2.78;;
46290;SDS011;32023;44.444;26.006;2023-04-24T11:57:55;7.55;;;2.90;;
46290;SDS011;32023;44.444;26.006;2023-04-24T12:00:31;4.93;;;2.60;;
46290;SDS011;32023;44.444;26.006;2023-04-24T12:03:06;5.13;;;2.47;;
46290;SDS011;32023;44.444;26.006;2023-04-24T12:05:40;3.55;;;2.00;;
46290;SDS011;32023;44.444;26.006;2023-04-24T12:08:14;3.80;;;2.10;;
46290;SDS011;32023;44.444;26.006;2023-04-24T12:10:57;5.85;;;2.65;;
46290;SDS011;32023;44.444;26.006;2023-04-24T12:13:25;6.57;;;2.47;;
46290;SDS011;32023;44.444;26.006;2023-04-24T12:15:51;10.05;;;2.92;;
46290;SDS011;32023;44.444;26.006;2023-04-24T12:18:18;5.93;;;2.10;;
46290;SDS011;32023;44.444;26.006;2023-04-24T12:20:53;6.85;;;2.30;;
46290;SDS011;32023;44.444;26.006;2023-04-24T12:23:38;5.97;;;2.47;;
46290;SDS011;32023;44.444;26.006;2023-04-24T12:26:10;3.63;;;2.42;;
46290;SDS011;32023;44.444;26.006;2023-04-24T12:28:47;6.03;;;2.70;;
46290;SDS011;32023;44.444;26.006;2023-04-24T12:31:18;5.55;;;2.40;;
46290;SDS011;32023;44.444;26.006;2023-04-24T12:33:50;2.78;;;1.90;;
46290;SDS011;32023;44.444;26.006;2023-04-24T12:36:20;6.43;;;2.67;;
46290;SDS011;32023;44.444;26.006;2023-04-24T12:38:47;10.38;;;2.50;;
46290;SDS011;32023;44.444;26.006;2023-04-24T12:41:18;3.28;;;2.40;;
46290;SDS011;32023;44.444;26.006;2023-04-24T12:43:54;7.72;;;2.63;;
46290;SDS011;32023;44.444;26.006;2023-04-24T12:46:24;4.78;;;2.30;;
46290;SDS011;32023;44.444;26.006;2023-04-24T12:48:50;5.57;;;2.67;;
46290;SDS011;32023;44.444;26.006;2023-04-24T12:51:28;8.05;;;2.80;;
46290;SDS011;32023;44.444;26.006;2023-04-24T12:53:57;5.50;;;2.35;;
46290;SDS011;32023;44.444;26.006;2023-04-24T12:56:24;5.88;;;2.50;;
46290;SDS011;32023;44.444;26.006;2023-04-24T12:58:50;5.05;;;2.30;;
46290;SDS011;32023;44.444;26.006;2023-04-24T13:01:17;5.25;;;2.40;;
46290;SDS011;32023;44.444;26.006;2023-04-24T13:03:43;6.35;;;2.35;;
46290;SDS011;32023;44.444;26.006;2023-04-24T13:06:18;5.78;;;2.42;;
46290;SDS011;32023;44.444;26.006;2023-04-24T13:09:02;7.22;;;2.40;;
46290;SDS011;32023;44.444;26.006;2023-04-24T13:11:31;6.18;;;2.72;;
46290;SDS011;32023;44.444;26.006;2023-04-24T13:16:55;7.05;;;2.33;;
46290;SDS011;32023;44.444;26.006;2023-04-24T13:19:25;5.80;;;2.50;;
46290;SDS011;32023;44.444;26.006;2023-04-24T13:22:00;5.72;;;2.72;;
46290;SDS011;32023;44.444;26.006;2023-04-24T13:24:36;5.57;;;2.28;;
46290;SDS011;32023;44.444;26.006;2023-04-24T13:27:19;7.57;;;2.35;;
46290;SDS011;32023;44.444;26.006;2023-04-24T13:29:46;6.88;;;2.17;;
46290;SDS011;32023;44.444;26.006;2023-04-24T13:32:14;6.95;;;2.30;;
46290;SDS011;32023;44.444;26.006;2023-04-24T13:34:45;4.05;;;2.13;;
46290;SDS011;32023;44.444;26.006;2023-04-24T13:37:17;7.97;;;2.90;;
46290;SDS011;32023;44.444;26.006;2023-04-24T13:39:43;6.97;;;2.25;;
46290;SDS011;32023;44.444;26.006;2023-04-24T13:42:10;4.38;;;2.03;;
46290;SDS011;32023;44.444;26.006;2023-04-24T13:44:37;5.35;;;1.92;;
46290;SDS011;32023;44.444;26.006;2023-04-24T13:47:03;8.00;;;2.10;;
46290;SDS011;32023;44.444;26.006;2023-04-24T13:49:32;11.00;;;2.60;;
46290;SDS011;32023;44.444;26.006;2023-04-24T13:52:01;21.48;;;2.65;;
46290;SDS011;32023;44.444;26.006;2023-04-24T13:54:30;6.47;;;2.47;;
46290;SDS011;32023;44.444;26.006;2023-04-24T13:56:59;7.90;;;2.60;;
46290;SDS011;32023;44.444;26.006;2023-04-24T13:59:29;5.22;;;2.53;;
46290;SDS011;32023;44.444;26.006;2023-04-24T14:01:58;6.55;;;2.30;;
46290;SDS011;32023;44.444;26.006;2023-04-24T14:04:27;6.22;;;2.42;;
46290;SDS011;32023;44.444;26.006;2023-04-24T14:06:53;5.97;;;2.58;;
46290;SDS011;32023;44.444;26.006;2023-04-24T14:09:20;4.95;;;2.58;;
46290;SDS011;32023;44.444;26.006;2023-04-24T14:11:46;8.20;;;2.60;;
46290;SDS011;32023;44.444;26.006;2023-04-24T14:14:13;6.60;;;2.30;;
46290;SDS011;32023;44.444;26.006;2023-04-24T14:16:39;5.50;;;2.92;;
46290;SDS011;32023;44.444;26.006;2023-04-24T14:19:08;5.95;;;2.38;;
46290;SDS011;32023;44.444;26.006;2023-04-24T14:21:34;4.43;;;2.00;;
46290;SDS011;32023;44.444;26.006;2023-04-24T14:24:01;24.40;;;3.75;;
46290;SDS011;32023;44.444;26.006;2023-04-24T14:26:30;6.90;;;2.55;;
46290;SDS011;32023;44.444;26.006;2023-04-24T14:28:56;8.50;;;2.65;;
46290;SDS011;32023;44.444;26.006;2023-04-24T14:31:24;9.75;;;2.90;;
46290;SDS011;32023;44.444;26.006;2023-04-24T14:33:52;4.72;;;2.38;;
46290;SDS011;32023;44.444;26.006;2023-04-24T14:36:19;5.60;;;3.00;;
46290;SDS011;32023;44.444;26.006;2023-04-24T14:38:45;7.30;;;2.85;;
46290;SDS011;32023;44.444;26.006;2023-04-24T14:41:19;10.10;;;2.50;;
46290;SDS011;32023;44.444;26.006;2023-04-24T14:43:46;10.85;;;2.92;;
46290;SDS011;32023;44.444;26.006;2023-04-24T14:46:17;9.98;;;2.80;;
46290;SDS011;32023;44.444;26.006;2023-04-24T14:48:46;7.32;;;2.72;;
46290;SDS011;32023;44.444;26.006;2023-04-24T14:51:15;9.27;;;2.50;;
46290;SDS011;32023;44.444;26.006;2023-04-24T14:53:42;6.10;;;2.90;;
46290;SDS011;32023;44.444;26.006;2023-04-24T14:56:08;5.43;;;3.08;;
46290;SDS011;32023;44.444;26.006;2023-04-24T14:58:34;5.60;;;2.83;;
46290;SDS011;32023;44.444;26.006;2023-04-24T15:01:08;8.23;;;3.25;;
46290;SDS011;32023;44.444;26.006;2023-04-24T15:03:35;6.60;;;3.10;;
46290;SDS011;32023;44.444;26.006;2023-04-24T15:06:02;10.77;;;3.17;;
46290;SDS011;32023;44.444;26.006;2023-04-24T15:08:28;6.10;;;2.90;;
46290;SDS011;32023;44.444;26.006;2023-04-24T15:10:55;4.88;;;2.97;;
46290;SDS011;32023;44.444;26.006;2023-04-24T15:13:21;11.65;;;3.38;;
46290;SDS011;32023;44.444;26.006;2023-04-24T15:15:50;12.60;;;3.40;;
46290;SDS011;32023;44.444;26.006;2023-04-24T15:18:16;9.15;;;3.00;;
46290;SDS011;32023;44.444;26.006;2023-04-24T15:20:42;8.90;;;3.72;;
46290;SDS011;32023;44.444;26.006;2023-04-24T15:23:09;12.63;;;3.33;;
46290;SDS011;32023;44.444;26.006;2023-04-24T15:25:36;9.55;;;3.03;;
46290;SDS011;32023;44.444;26.006;2023-04-24T15:28:03;7.47;;;3.47;;
46290;SDS011;32023;44.444;26.006;2023-04-24T15:30:31;8.18;;;3.20;;